Aérodrome :
LOGIN :

S'inscrire | Disclaimer

   EN    FR    IT 

 










Légende :    VFR   VFR Marginal   IFR   IFR Intensif   IFR Très Intensif
Visi : 
Plafond : 
>= 8 km
>= 3000ft
5 à 8 km
1000 à 3000 ft
1500m à 5 km
500 à 1000 ft
800 à 1500m
200 à 500 ft
< 800m
< 200 ft
Symboles :   Orages  Brouillard  Fortes neiges  Fortes précipitations  Vent > 20 kt
SIGMETs :   Divers  Orages  Givrage  Turbulence  Onde Orograph.  Cendres Volcan.







- Altitude de l'aérodrome : 1521 ft
- Code IATA : NCY
- Voir les cartes d'approche


LFLP - Annecy

DERNIER METAR :
  • 260330Z AUTO VRB01KT 9999 -RA ////// 08/07 Q1006

METARs EXPIRÉS :
  • 260300Z AUTO 22005KT 9999 RA ////// 08/07 Q1006
  • 260230Z AUTO 21004KT 170V260 9999 -RA ////// 08/07 Q1006
  • 260200Z AUTO 15005KT 090V200 9999 -RA ////// 08/07 Q1006
  • 260130Z AUTO VRB03KT 9999 -RA ////// 08/07 Q1006
  • 260100Z AUTO VRB02KT 9999 -RA ////// 08/07 Q1007

TAF TAF LFLP
Valide du 26 à 03h jusqu'au 27 à 03h UTC


260200Z 2603/2703 VRB05KT 9999 -RA BKN045
TEMPO 2603/2615 5000 RA SCT025 BKN030 OVC045
Pas de NOTAMs connus pour ce terrain.



MET'MAP, la Météo Aéronautique d'un coup d'oeil ! - Copyright ORBIFLY Décembre 2007 - Disclaimer

ORBIFLY MET'MAP TEAM :

Programmation & Développement : Alexandra Zaïnal
Conception & Développement : Baudouin d'Aumeries
Co-Programmation & Développement : Marc-Olivier Méhu
Soutien technique & logistique : Manuel Goepfert

Contact : metmap@orbifly.com




SOURCES & CREDITS :

   NOAA